createdAt,value
2019-02-11T00:04:12.259Z,98884.86
2019-02-11T00:09:17.453Z,98878.75
2019-02-11T00:14:23.440Z,98887.86
2019-02-11T00:19:29.028Z,98874.97
2019-02-11T00:24:34.416Z,98880.92
2019-02-11T00:29:39.542Z,98883.98
2019-02-11T00:34:44.816Z,98893.86
2019-02-11T00:39:49.952Z,98903.28
2019-02-11T00:44:55.465Z,98908.98
2019-02-11T00:50:00.671Z,98903.28
2019-02-11T00:55:07.255Z,98901.04
2019-02-11T01:00:13.798Z,98896.86
2019-02-11T01:05:20.280Z,98899.03
2019-02-11T01:10:25.615Z,98896.98
2019-02-11T01:15:31.061Z,98889.05
2019-02-11T01:20:36.513Z,98897.27
2019-02-11T01:25:41.973Z,98899.05
2019-02-11T01:30:47.451Z,98876.62
2019-02-11T01:35:52.770Z,98870.97
2019-02-11T01:40:58.011Z,98873.50
2019-02-11T01:46:03.742Z,98878.16
2019-02-11T01:51:09.128Z,98886.69
2019-02-11T01:56:14.512Z,98884.83
2019-02-11T02:01:19.852Z,98880.53
2019-02-11T02:06:25.174Z,98877.55
2019-02-11T02:11:30.418Z,98871.43
2019-02-11T02:16:35.964Z,98861.02
2019-02-11T02:21:41.422Z,98848.08
2019-02-11T02:26:46.669Z,98864.48
2019-02-11T02:31:52.253Z,98870.95
2019-02-11T02:36:57.700Z,98866.98
2019-02-11T02:42:03.033Z,98876.59
2019-02-11T02:47:08.307Z,98866.19
2019-02-11T02:52:13.612Z,98860.61
2019-02-11T02:57:18.944Z,98879.10
2019-02-11T03:02:24.303Z,98867.41
2019-02-11T03:07:29.805Z,98872.64
2019-02-11T03:12:35.408Z,98881.28
2019-02-11T03:17:40.828Z,98882.16
2019-02-11T03:22:46.341Z,98884.02
2019-02-11T03:27:51.714Z,98897.09
2019-02-11T03:32:56.885Z,98888.49
2019-02-11T03:38:02.426Z,98889.03
2019-02-11T03:43:07.902Z,98885.55
2019-02-11T03:48:13.154Z,98890.38
2019-02-11T03:53:18.321Z,98895.52
2019-02-11T03:58:23.868Z,98902.94
2019-02-11T04:03:29.243Z,98888.73
2019-02-11T04:08:34.764Z,98885.69
2019-02-11T04:13:39.934Z,98887.80
2019-02-11T04:18:45.092Z,98890.40
2019-02-11T04:23:50.230Z,98884.81
2019-02-11T04:28:55.500Z,98882.69
2019-02-11T04:34:00.752Z,98888.75
2019-02-11T04:39:06.741Z,98878.85
2019-02-11T04:44:12.002Z,98897.39
2019-02-11T04:49:17.249Z,98893.05
2019-02-11T04:54:23.840Z,98905.51
2019-02-11T04:59:29.089Z,98896.53
2019-02-11T05:04:34.246Z,98881.91
2019-02-11T05:09:39.399Z,98878.74
2019-02-11T05:14:44.748Z,98866.09
2019-02-11T05:19:50.159Z,98875.56
2019-02-11T05:24:55.348Z,98901.50
2019-02-11T05:30:00.582Z,98901.64
2019-02-11T05:35:07.122Z,98909.47
2019-02-11T05:40:13.114Z,98897.92
2019-02-11T05:45:18.260Z,98896.64
2019-02-11T05:50:23.510Z,98891.04
2019-02-11T05:55:28.750Z,98889.78
2019-02-11T06:00:34.102Z,98896.98
2019-02-11T06:05:39.471Z,98899.47
2019-02-11T06:10:44.824Z,98897.63
2019-02-11T06:15:50.255Z,98915.76
2019-02-11T06:20:55.599Z,98931.28
2019-02-11T06:26:01.105Z,98914.44
2019-02-11T06:31:06.465Z,98931.69
2019-02-11T06:36:12.892Z,98963.69
2019-02-11T06:41:18.389Z,98960.65
2019-02-11T06:46:23.519Z,98965.06
2019-02-11T06:51:28.867Z,98963.77
2019-02-11T06:56:34.043Z,98957.78
2019-02-11T07:01:39.675Z,98952.05
2019-02-11T07:06:44.892Z,98955.99
2019-02-11T07:11:50.181Z,98976.70
2019-02-11T07:16:55.355Z,98998.30
2019-02-11T07:22:00.490Z,99000.10
2019-02-11T07:27:05.713Z,99004.16
2019-02-11T07:32:10.759Z,99005.05
2019-02-11T07:37:16.139Z,99008.06
2019-02-11T07:42:26.302Z,99016.37
2019-02-11T07:47:31.558Z,99024.68
2019-02-11T07:52:36.915Z,99034.75
2019-02-11T07:57:42.366Z,99043.00
2019-02-11T08:02:47.950Z,99058.66
2019-02-11T08:07:53.296Z,99063.78
2019-02-11T08:12:58.547Z,99060.78
2019-02-11T08:18:04.406Z,99064.19
2019-02-11T08:23:12.927Z,99069.31
2019-02-11T08:28:19.641Z,99071.21
2019-02-11T08:33:23.779Z,99085.00
2019-02-11T08:38:29.149Z,99096.07
2019-02-11T08:43:35.620Z,99112.30
2019-02-11T08:48:41.110Z,99120.59
2019-02-11T08:53:46.451Z,99142.02
2019-02-11T08:58:51.794Z,99147.09
2019-02-11T09:03:57.162Z,99153.31
2019-02-11T09:09:02.486Z,99169.42
2019-02-11T09:14:09.418Z,99178.55
2019-02-11T09:19:14.780Z,99183.32
2019-02-11T09:24:20.114Z,99202.71
2019-02-11T09:29:25.786Z,99206.88
2019-02-11T09:34:32.085Z,99219.69
2019-02-11T09:39:37.317Z,99230.55
2019-02-11T09:44:42.683Z,99231.44
2019-02-11T09:49:50.875Z,99250.59
2019-02-11T09:54:56.050Z,99268.53
2019-02-11T10:00:01.336Z,99277.95
2019-02-11T10:05:07.019Z,99289.05
2019-02-11T10:10:12.680Z,99285.06
2019-02-11T10:15:18.011Z,99304.06
2019-02-11T10:20:23.288Z,99303.02
2019-02-11T10:25:30.621Z,99301.59
2019-02-11T10:30:35.832Z,99318.68
2019-02-11T10:35:42.469Z,99334.62
2019-02-11T10:40:47.878Z,99328.75
2019-02-11T10:45:53.238Z,99341.19
2019-02-11T10:50:58.498Z,99342.48
2019-02-11T10:56:04.772Z,99347.51
2019-02-11T11:01:10.240Z,99342.88
2019-02-11T11:06:15.606Z,99357.69
2019-02-11T11:11:21.314Z,99367.14
2019-02-11T11:16:29.709Z,99378.53
2019-02-11T11:21:33.955Z,99384.23
2019-02-11T11:26:39.107Z,99392.66
2019-02-11T11:31:44.334Z,99402.34
2019-02-11T11:36:49.690Z,99387.70
2019-02-11T11:41:55.353Z,99403.05
2019-02-11T11:47:00.997Z,99408.47
2019-02-11T11:52:06.391Z,99407.22
2019-02-11T11:57:11.632Z,99425.08
2019-02-11T12:02:17.322Z,99419.23
2019-02-11T12:07:22.675Z,99431.41
2019-02-11T12:12:28.329Z,99446.38
2019-02-11T12:17:33.575Z,99459.59
2019-02-11T12:22:39.049Z,99457.98
2019-02-11T12:27:44.428Z,99462.02
2019-02-11T12:32:49.767Z,99483.65
2019-02-11T12:37:55.165Z,99486.60
2019-02-11T12:43:00.703Z,99505.05
2019-02-11T12:48:06.922Z,99520.45
2019-02-11T12:53:12.347Z,99523.21
2019-02-11T12:58:17.890Z,99539.61
2019-02-11T13:03:23.282Z,99556.07
2019-02-11T13:08:28.571Z,99562.25
2019-02-11T13:13:33.991Z,99570.56
2019-02-11T13:18:40.222Z,99572.18
2019-02-11T13:23:45.612Z,99581.66
2019-02-11T13:28:51.065Z,99601.94
2019-02-11T13:33:56.518Z,99615.94
2019-02-11T13:39:01.829Z,99633.84
2019-02-11T13:44:11.649Z,99641.63
2019-02-11T13:49:16.627Z,99664.52
2019-02-11T13:54:22.007Z,99685.23
2019-02-11T13:59:27.211Z,99697.33
2019-02-11T14:04:32.693Z,99707.36
2019-02-11T14:09:38.352Z,99724.94
2019-02-11T14:14:43.729Z,99739.24
2019-02-11T14:19:49.022Z,99760.56
2019-02-11T14:24:54.430Z,99768.91
2019-02-11T14:29:59.693Z,99785.63
2019-02-11T14:35:06.469Z,99799.90
2019-02-11T14:40:12.618Z,99817.86
2019-02-11T14:45:19.947Z,99830.92
2019-02-11T14:50:25.340Z,99841.12
2019-02-11T14:55:31.048Z,99855.25
2019-02-11T15:00:37.489Z,99865.71
2019-02-11T15:05:42.701Z,99876.97
2019-02-11T15:10:48.009Z,99888.34
2019-02-11T15:15:53.860Z,99890.52
2019-02-11T15:20:59.215Z,99907.77
2019-02-11T15:26:04.566Z,99915.80
2019-02-11T15:31:10.125Z,99916.27
2019-02-11T15:36:15.562Z,99925.11
2019-02-11T15:41:20.831Z,99937.98
2019-02-11T15:46:26.833Z,99938.67
2019-02-11T15:51:32.288Z,99962.83
2019-02-11T15:56:37.719Z,99987.55
2019-02-11T16:01:43.061Z,99988.20
2019-02-11T16:06:48.352Z,100008.39
2019-02-11T16:11:54.042Z,100011.83
2019-02-11T16:16:59.416Z,100022.64
2019-02-11T16:22:04.565Z,100027.80
2019-02-11T16:27:09.675Z,100049.15
2019-02-11T16:32:15.030Z,100054.59
2019-02-11T16:37:20.487Z,100064.27
2019-02-11T16:42:25.941Z,100077.59
2019-02-11T16:47:31.203Z,100094.64
2019-02-11T16:52:36.568Z,100111.30
2019-02-11T16:57:41.661Z,100111.30
2019-02-11T17:02:46.974Z,100117.93
2019-02-11T17:07:52.439Z,100131.12
2019-02-11T17:12:57.881Z,100137.56
2019-02-11T17:18:03.288Z,100147.66
2019-02-11T17:23:09.300Z,100166.03
2019-02-11T17:28:14.454Z,100166.03
2019-02-11T17:33:19.639Z,100184.38
2019-02-11T17:38:25.003Z,100190.47
2019-02-11T17:43:30.163Z,100191.62
2019-02-11T17:48:35.615Z,100212.75
2019-02-11T17:53:41.217Z,100218.91
2019-02-11T17:58:46.501Z,100222.73
2019-02-11T18:03:51.850Z,100239.41
2019-02-11T18:08:57.002Z,100236.67
2019-02-11T18:14:02.588Z,100247.88
2019-02-11T18:19:08.068Z,100257.70
2019-02-11T18:24:13.440Z,100275.13
2019-02-11T18:29:18.815Z,100286.78
2019-02-11T18:34:24.255Z,100310.12
2019-02-11T18:39:29.431Z,100321.36
2019-02-11T18:44:34.851Z,100330.97
2019-02-11T18:49:40.273Z,100340.34
2019-02-11T18:54:45.341Z,100353.00
2019-02-11T18:59:50.625Z,100363.39
2019-02-11T19:04:55.891Z,100370.16
2019-02-11T19:10:01.335Z,100382.09
2019-02-11T19:15:09.686Z,100384.67
2019-02-11T19:20:18.328Z,100387.74
2019-02-11T19:25:23.560Z,100394.34
2019-02-11T19:30:28.864Z,100399.36
2019-02-11T19:35:34.277Z,100422.87
2019-02-11T19:40:39.576Z,100434.75
2019-02-11T19:45:44.919Z,100444.67
2019-02-11T19:50:50.274Z,100462.92
2019-02-11T19:55:55.718Z,100488.10
2019-02-11T20:01:01.191Z,100496.63
2019-02-11T20:06:06.641Z,100516.42
2019-02-11T20:11:12.214Z,100529.34
2019-02-11T20:16:17.709Z,100528.43
2019-02-11T20:21:23.339Z,100545.18
2019-02-11T20:26:28.755Z,100556.59
2019-02-11T20:31:33.907Z,100551.52
2019-02-11T20:36:39.156Z,100562.03
2019-02-11T20:41:44.472Z,100572.20
2019-02-11T20:46:49.618Z,100590.79
2019-02-11T20:51:54.907Z,100594.38
2019-02-11T20:57:00.202Z,100614.66
2019-02-11T21:02:05.598Z,100626.77
2019-02-11T21:07:10.987Z,100634.72
2019-02-11T21:12:16.314Z,100631.66
2019-02-11T21:17:21.672Z,100656.86
2019-02-11T21:22:27.055Z,100650.28
2019-02-11T21:27:32.585Z,100658.98
2019-02-11T21:32:38.071Z,100665.24
2019-02-11T21:37:43.442Z,100671.63
2019-02-11T21:42:48.782Z,100674.84
2019-02-11T21:47:54.135Z,100686.26
2019-02-11T21:53:00.625Z,100704.22
2019-02-11T21:58:06.073Z,100699.89
2019-02-11T22:03:11.327Z,100718.63
2019-02-11T22:08:16.790Z,100727.33
2019-02-11T22:13:21.945Z,100713.73
2019-02-11T22:18:27.422Z,100723.78
2019-02-11T22:23:32.696Z,100719.98
2019-02-11T22:28:37.753Z,100729.13
2019-02-11T22:33:43.216Z,100749.34
2019-02-11T22:38:48.360Z,100763.91
2019-02-11T22:43:53.685Z,100762.87
2019-02-11T22:48:58.992Z,100766.60
2019-02-11T22:54:04.367Z,100771.96
2019-02-11T22:59:09.643Z,100786.23
2019-02-11T23:04:15.012Z,100791.46
2019-02-11T23:09:20.291Z,100796.50
2019-02-11T23:14:25.476Z,100808.61
2019-02-11T23:19:31.629Z,100821.11
2019-02-11T23:24:36.855Z,100813.76
2019-02-11T23:29:42.145Z,100820.58
2019-02-11T23:34:47.543Z,100832.52
2019-02-11T23:39:52.805Z,100839.92
2019-02-11T23:44:58.020Z,100855.75
2019-02-11T23:50:03.212Z,100850.70
2019-02-11T23:55:11.498Z,100857.60
